sensor_id;sensor_type;location;lat;lon;timestamp;P1;durP1;ratioP1;P2;durP2;ratioP2
29906;SDS011;16776;50.958;10.994;2023-02-03T00:01:21;1.38;;;0.60;;
29906;SDS011;16776;50.958;10.994;2023-02-03T00:03:47;1.10;;;0.75;;
29906;SDS011;16776;50.958;10.994;2023-02-03T00:06:15;1.30;;;0.75;;
29906;SDS011;16776;50.958;10.994;2023-02-03T00:08:42;1.17;;;0.65;;
29906;SDS011;16776;50.958;10.994;2023-02-03T00:11:09;0.80;;;0.77;;
29906;SDS011;16776;50.958;10.994;2023-02-03T00:13:41;1.48;;;0.60;;
29906;SDS011;16776;50.958;10.994;2023-02-03T00:16:08;1.02;;;0.85;;
29906;SDS011;16776;50.958;10.994;2023-02-03T00:18:34;1.73;;;0.98;;
29906;SDS011;16776;50.958;10.994;2023-02-03T00:21:01;2.55;;;0.90;;
29906;SDS011;16776;50.958;10.994;2023-02-03T00:23:29;1.30;;;0.98;;
29906;SDS011;16776;50.958;10.994;2023-02-03T00:25:56;0.73;;;0.73;;
29906;SDS011;16776;50.958;10.994;2023-02-03T00:28:22;0.70;;;0.70;;
29906;SDS011;16776;50.958;10.994;2023-02-03T00:30:52;0.40;;;0.40;;
29906;SDS011;16776;50.958;10.994;2023-02-03T00:33:18;2.00;;;0.95;;
29906;SDS011;16776;50.958;10.994;2023-02-03T00:35:45;0.93;;;0.80;;
29906;SDS011;16776;50.958;10.994;2023-02-03T00:38:12;0.65;;;0.60;;
29906;SDS011;16776;50.958;10.994;2023-02-03T00:40:39;0.80;;;0.52;;
29906;SDS011;16776;50.958;10.994;2023-02-03T00:43:06;0.90;;;0.80;;
29906;SDS011;16776;50.958;10.994;2023-02-03T00:45:34;1.08;;;0.57;;
29906;SDS011;16776;50.958;10.994;2023-02-03T00:48:00;0.60;;;0.50;;
29906;SDS011;16776;50.958;10.994;2023-02-03T00:50:27;0.40;;;0.40;;
29906;SDS011;16776;50.958;10.994;2023-02-03T00:52:53;0.57;;;0.57;;
29906;SDS011;16776;50.958;10.994;2023-02-03T00:55:20;0.68;;;0.60;;
29906;SDS011;16776;50.958;10.994;2023-02-03T00:57:48;0.50;;;0.50;;
29906;SDS011;16776;50.958;10.994;2023-02-03T01:00:15;0.60;;;0.60;;
29906;SDS011;16776;50.958;10.994;2023-02-03T01:02:42;0.52;;;0.52;;
29906;SDS011;16776;50.958;10.994;2023-02-03T01:05:11;0.70;;;0.70;;
29906;SDS011;16776;50.958;10.994;2023-02-03T01:07:40;0.57;;;0.57;;
29906;SDS011;16776;50.958;10.994;2023-02-03T01:10:07;0.75;;;0.75;;
29906;SDS011;16776;50.958;10.994;2023-02-03T01:12:34;0.52;;;0.52;;
29906;SDS011;16776;50.958;10.994;2023-02-03T01:15:03;0.75;;;0.73;;
29906;SDS011;16776;50.958;10.994;2023-02-03T01:17:30;0.75;;;0.73;;
29906;SDS011;16776;50.958;10.994;2023-02-03T01:19:56;0.80;;;0.70;;
29906;SDS011;16776;50.958;10.994;2023-02-03T01:22:23;0.80;;;0.80;;
29906;SDS011;16776;50.958;10.994;2023-02-03T01:24:50;0.52;;;0.52;;
29906;SDS011;16776;50.958;10.994;2023-02-03T01:27:16;0.60;;;0.60;;
29906;SDS011;16776;50.958;10.994;2023-02-03T01:29:43;0.90;;;0.90;;
29906;SDS011;16776;50.958;10.994;2023-02-03T01:32:12;0.82;;;0.82;;
29906;SDS011;16776;50.958;10.994;2023-02-03T01:34:38;0.73;;;0.73;;
29906;SDS011;16776;50.958;10.994;2023-02-03T01:37:05;0.80;;;0.80;;
29906;SDS011;16776;50.958;10.994;2023-02-03T01:39:31;1.00;;;0.80;;
29906;SDS011;16776;50.958;10.994;2023-02-03T01:41:58;1.40;;;1.10;;
29906;SDS011;16776;50.958;10.994;2023-02-03T01:44:35;1.02;;;0.90;;
29906;SDS011;16776;50.958;10.994;2023-02-03T01:47:12;1.00;;;0.95;;
29906;SDS011;16776;50.958;10.994;2023-02-03T01:49:44;1.10;;;0.90;;
29906;SDS011;16776;50.958;10.994;2023-02-03T01:52:14;1.23;;;1.13;;
29906;SDS011;16776;50.958;10.994;2023-02-03T01:54:43;2.08;;;1.60;;
29906;SDS011;16776;50.958;10.994;2023-02-03T01:57:12;1.58;;;1.40;;
29906;SDS011;16776;50.958;10.994;2023-02-03T01:59:44;1.77;;;1.67;;
29906;SDS011;16776;50.958;10.994;2023-02-03T02:02:13;1.70;;;1.42;;
29906;SDS011;16776;50.958;10.994;2023-02-03T02:04:45;3.13;;;1.52;;
29906;SDS011;16776;50.958;10.994;2023-02-03T02:07:19;2.17;;;1.98;;
29906;SDS011;16776;50.958;10.994;2023-02-03T02:09:45;3.75;;;2.10;;
29906;SDS011;16776;50.958;10.994;2023-02-03T02:12:12;1.80;;;1.70;;
29906;SDS011;16776;50.958;10.994;2023-02-03T02:14:39;1.95;;;1.85;;
29906;SDS011;16776;50.958;10.994;2023-02-03T02:17:10;2.00;;;1.80;;
29906;SDS011;16776;50.958;10.994;2023-02-03T02:19:53;1.98;;;1.77;;
29906;SDS011;16776;50.958;10.994;2023-02-03T02:22:40;1.90;;;1.80;;
29906;SDS011;16776;50.958;10.994;2023-02-03T02:25:25;1.90;;;1.70;;
29906;SDS011;16776;50.958;10.994;2023-02-03T02:28:13;2.30;;;2.10;;
29906;SDS011;16776;50.958;10.994;2023-02-03T02:31:08;2.90;;;1.77;;
29906;SDS011;16776;50.958;10.994;2023-02-03T02:34:12;2.20;;;2.10;;
29906;SDS011;16776;50.958;10.994;2023-02-03T02:36:44;1.92;;;1.83;;
29906;SDS011;16776;50.958;10.994;2023-02-03T02:39:20;1.90;;;1.70;;
29906;SDS011;16776;50.958;10.994;2023-02-03T02:41:55;1.88;;;1.70;;
29906;SDS011;16776;50.958;10.994;2023-02-03T02:44:30;2.58;;;2.35;;
29906;SDS011;16776;50.958;10.994;2023-02-03T02:47:01;2.47;;;2.03;;
29906;SDS011;16776;50.958;10.994;2023-02-03T02:49:34;2.42;;;2.13;;
29906;SDS011;16776;50.958;10.994;2023-02-03T02:52:07;2.40;;;2.20;;
29906;SDS011;16776;50.958;10.994;2023-02-03T02:54:36;2.33;;;2.13;;
29906;SDS011;16776;50.958;10.994;2023-02-03T02:57:05;2.40;;;2.20;;
29906;SDS011;16776;50.958;10.994;2023-02-03T02:59:36;2.67;;;2.30;;
29906;SDS011;16776;50.958;10.994;2023-02-03T03:02:03;3.65;;;2.53;;
29906;SDS011;16776;50.958;10.994;2023-02-03T03:04:30;2.70;;;2.50;;
29906;SDS011;16776;50.958;10.994;2023-02-03T03:07:02;2.65;;;2.10;;
29906;SDS011;16776;50.958;10.994;2023-02-03T03:09:32;3.42;;;2.47;;
29906;SDS011;16776;50.958;10.994;2023-02-03T03:12:04;3.58;;;2.22;;
29906;SDS011;16776;50.958;10.994;2023-02-03T03:14:38;2.58;;;2.38;;
29906;SDS011;16776;50.958;10.994;2023-02-03T03:17:09;2.45;;;2.22;;
29906;SDS011;16776;50.958;10.994;2023-02-03T03:19:39;2.63;;;2.42;;
29906;SDS011;16776;50.958;10.994;2023-02-03T03:22:11;2.75;;;2.15;;
29906;SDS011;16776;50.958;10.994;2023-02-03T03:27:11;1.80;;;1.70;;
29906;SDS011;16776;50.958;10.994;2023-02-03T03:29:44;3.40;;;2.35;;
29906;SDS011;16776;50.958;10.994;2023-02-03T03:32:13;2.28;;;2.05;;
29906;SDS011;16776;50.958;10.994;2023-02-03T03:34:41;2.72;;;1.88;;
29906;SDS011;16776;50.958;10.994;2023-02-03T03:37:09;3.50;;;1.98;;
29906;SDS011;16776;50.958;10.994;2023-02-03T03:39:44;2.83;;;1.52;;
29906;SDS011;16776;50.958;10.994;2023-02-03T03:42:16;2.00;;;1.90;;
29906;SDS011;16776;50.958;10.994;2023-02-03T03:44:49;2.60;;;2.00;;
29906;SDS011;16776;50.958;10.994;2023-02-03T03:47:23;2.15;;;1.95;;
29906;SDS011;16776;50.958;10.994;2023-02-03T03:49:54;1.90;;;1.60;;
29906;SDS011;16776;50.958;10.994;2023-02-03T03:52:27;2.13;;;1.63;;
29906;SDS011;16776;50.958;10.994;2023-02-03T03:54:59;1.60;;;1.48;;
29906;SDS011;16776;50.958;10.994;2023-02-03T03:57:29;1.60;;;1.50;;
29906;SDS011;16776;50.958;10.994;2023-02-03T04:00:00;1.52;;;1.40;;
29906;SDS011;16776;50.958;10.994;2023-02-03T04:02:30;1.58;;;1.40;;
29906;SDS011;16776;50.958;10.994;2023-02-03T04:05:00;2.13;;;1.38;;
29906;SDS011;16776;50.958;10.994;2023-02-03T04:07:37;1.50;;;1.40;;
29906;SDS011;16776;50.958;10.994;2023-02-03T04:10:04;1.50;;;1.40;;
29906;SDS011;16776;50.958;10.994;2023-02-03T04:12:37;1.38;;;1.27;;
29906;SDS011;16776;50.958;10.994;2023-02-03T04:15:04;1.98;;;1.60;;
29906;SDS011;16776;50.958;10.994;2023-02-03T04:17:31;1.55;;;1.45;;
29906;SDS011;16776;50.958;10.994;2023-02-03T04:20:00;1.25;;;1.15;;
29906;SDS011;16776;50.958;10.994;2023-02-03T04:22:26;2.47;;;1.48;;
29906;SDS011;16776;50.958;10.994;2023-02-03T04:24:54;1.73;;;1.45;;
29906;SDS011;16776;50.958;10.994;2023-02-03T04:27:23;1.45;;;0.90;;
29906;SDS011;16776;50.958;10.994;2023-02-03T04:29:49;1.75;;;1.58;;
29906;SDS011;16776;50.958;10.994;2023-02-03T04:32:16;1.40;;;1.30;;
29906;SDS011;16776;50.958;10.994;2023-02-03T04:34:43;1.30;;;1.20;;
29906;SDS011;16776;50.958;10.994;2023-02-03T04:37:09;1.33;;;0.93;;
29906;SDS011;16776;50.958;10.994;2023-02-03T04:39:36;0.80;;;0.80;;
29906;SDS011;16776;50.958;10.994;2023-02-03T04:42:04;1.10;;;1.00;;
29906;SDS011;16776;50.958;10.994;2023-02-03T04:44:33;1.48;;;1.30;;
29906;SDS011;16776;50.958;10.994;2023-02-03T04:47:00;1.60;;;1.42;;
29906;SDS011;16776;50.958;10.994;2023-02-03T04:49:26;1.15;;;0.88;;
29906;SDS011;16776;50.958;10.994;2023-02-03T04:51:53;1.00;;;0.93;;
29906;SDS011;16776;50.958;10.994;2023-02-03T04:54:19;0.88;;;0.80;;
29906;SDS011;16776;50.958;10.994;2023-02-03T04:56:46;1.50;;;0.90;;
29906;SDS011;16776;50.958;10.994;2023-02-03T04:59:16;1.08;;;1.00;;
29906;SDS011;16776;50.958;10.994;2023-02-03T05:01:43;2.13;;;0.85;;
29906;SDS011;16776;50.958;10.994;2023-02-03T05:04:09;1.02;;;1.02;;
29906;SDS011;16776;50.958;10.994;2023-02-03T05:06:36;0.93;;;0.90;;
29906;SDS011;16776;50.958;10.994;2023-02-03T05:09:02;1.10;;;1.00;;
29906;SDS011;16776;50.958;10.994;2023-02-03T05:11:32;0.88;;;0.80;;
29906;SDS011;16776;50.958;10.994;2023-02-03T05:13:59;1.40;;;1.20;;
29906;SDS011;16776;50.958;10.994;2023-02-03T05:16:27;1.20;;;1.10;;
29906;SDS011;16776;50.958;10.994;2023-02-03T05:18:57;1.48;;;1.05;;
29906;SDS011;16776;50.958;10.994;2023-02-03T05:21:24;1.65;;;1.55;;
29906;SDS011;16776;50.958;10.994;2023-02-03T05:23:53;1.50;;;1.20;;
29906;SDS011;16776;50.958;10.994;2023-02-03T05:26:20;3.53;;;1.52;;
29906;SDS011;16776;50.958;10.994;2023-02-03T05:28:46;1.98;;;1.33;;
29906;SDS011;16776;50.958;10.994;2023-02-03T05:31:13;1.15;;;1.00;;
29906;SDS011;16776;50.958;10.994;2023-02-03T05:33:41;1.33;;;1.10;;
29906;SDS011;16776;50.958;10.994;2023-02-03T05:36:08;1.75;;;1.20;;
29906;SDS011;16776;50.958;10.994;2023-02-03T05:38:35;2.80;;;1.48;;
29906;SDS011;16776;50.958;10.994;2023-02-03T05:41:01;1.95;;;1.30;;
29906;SDS011;16776;50.958;10.994;2023-02-03T05:43:45;1.45;;;1.35;;
29906;SDS011;16776;50.958;10.994;2023-02-03T05:46:14;1.77;;;1.27;;
29906;SDS011;16776;50.958;10.994;2023-02-03T05:48:42;1.40;;;1.30;;
29906;SDS011;16776;50.958;10.994;2023-02-03T05:51:09;1.20;;;1.10;;
29906;SDS011;16776;50.958;10.994;2023-02-03T05:53:35;1.27;;;1.17;;
29906;SDS011;16776;50.958;10.994;2023-02-03T05:56:02;1.35;;;1.17;;
29906;SDS011;16776;50.958;10.994;2023-02-03T05:58:28;2.72;;;1.42;;
29906;SDS011;16776;50.958;10.994;2023-02-03T06:00:57;1.58;;;1.48;;
29906;SDS011;16776;50.958;10.994;2023-02-03T06:03:24;1.42;;;1.33;;
29906;SDS011;16776;50.958;10.994;2023-02-03T06:05:52;1.60;;;1.50;;
29906;SDS011;16776;50.958;10.994;2023-02-03T06:08:21;1.77;;;1.45;;
29906;SDS011;16776;50.958;10.994;2023-02-03T06:13:21;3.42;;;1.58;;
29906;SDS011;16776;50.958;10.994;2023-02-03T06:15:48;3.20;;;1.58;;
29906;SDS011;16776;50.958;10.994;2023-02-03T06:18:15;2.70;;;1.63;;
29906;SDS011;16776;50.958;10.994;2023-02-03T06:20:41;2.03;;;1.55;;
29906;SDS011;16776;50.958;10.994;2023-02-03T06:23:12;3.22;;;1.60;;
29906;SDS011;16776;50.958;10.994;2023-02-03T06:25:41;1.38;;;1.27;;
29906;SDS011;16776;50.958;10.994;2023-02-03T06:28:07;1.30;;;1.20;;
29906;SDS011;16776;50.958;10.994;2023-02-03T06:30:34;1.60;;;1.40;;
29906;SDS011;16776;50.958;10.994;2023-02-03T06:33:00;3.15;;;1.27;;
29906;SDS011;16776;50.958;10.994;2023-02-03T06:35:30;1.77;;;1.52;;
29906;SDS011;16776;50.958;10.994;2023-02-03T06:37:56;1.50;;;1.40;;
29906;SDS011;16776;50.958;10.994;2023-02-03T06:40:24;1.38;;;1.25;;
29906;SDS011;16776;50.958;10.994;2023-02-03T06:42:51;1.67;;;1.05;;
29906;SDS011;16776;50.958;10.994;2023-02-03T06:45:18;1.35;;;1.23;;
29906;SDS011;16776;50.958;10.994;2023-02-03T06:47:44;1.60;;;1.17;;
29906;SDS011;16776;50.958;10.994;2023-02-03T06:50:12;1.58;;;1.25;;
29906;SDS011;16776;50.958;10.994;2023-02-03T06:52:40;1.95;;;1.50;;
29906;SDS011;16776;50.958;10.994;2023-02-03T06:55:07;2.35;;;1.55;;
29906;SDS011;16776;50.958;10.994;2023-02-03T06:57:36;2.72;;;1.50;;
29906;SDS011;16776;50.958;10.994;2023-02-03T07:00:09;2.63;;;1.45;;
29906;SDS011;16776;50.958;10.994;2023-02-03T07:02:37;4.07;;;1.30;;
29906;SDS011;16776;50.958;10.994;2023-02-03T07:05:04;3.90;;;1.55;;
29906;SDS011;16776;50.958;10.994;2023-02-03T07:07:31;0.95;;;0.90;;
29906;SDS011;16776;50.958;10.994;2023-02-03T07:09:59;3.90;;;1.30;;
29906;SDS011;16776;50.958;10.994;2023-02-03T07:12:26;2.90;;;1.40;;
29906;SDS011;16776;50.958;10.994;2023-02-03T07:14:57;2.55;;;1.13;;
29906;SDS011;16776;50.958;10.994;2023-02-03T07:17:23;1.48;;;1.30;;
29906;SDS011;16776;50.958;10.994;2023-02-03T07:19:50;1.65;;;1.30;;
29906;SDS011;16776;50.958;10.994;2023-02-03T07:22:17;1.83;;;1.27;;
29906;SDS011;16776;50.958;10.994;2023-02-03T07:24:44;1.05;;;1.00;;
29906;SDS011;16776;50.958;10.994;2023-02-03T07:27:10;1.65;;;0.95;;
29906;SDS011;16776;50.958;10.994;2023-02-03T07:29:41;1.75;;;1.50;;
29906;SDS011;16776;50.958;10.994;2023-02-03T07:32:09;3.70;;;1.73;;
29906;SDS011;16776;50.958;10.994;2023-02-03T07:34:36;2.45;;;1.83;;
29906;SDS011;16776;50.958;10.994;2023-02-03T07:37:03;1.98;;;1.48;;
29906;SDS011;16776;50.958;10.994;2023-02-03T07:39:29;1.50;;;1.40;;
29906;SDS011;16776;50.958;10.994;2023-02-03T07:41:57;3.42;;;1.38;;
29906;SDS011;16776;50.958;10.994;2023-02-03T07:44:23;2.58;;;1.73;;
29906;SDS011;16776;50.958;10.994;2023-02-03T07:46:50;2.17;;;1.27;;
29906;SDS011;16776;50.958;10.994;2023-02-03T07:49:18;3.00;;;1.65;;
29906;SDS011;16776;50.958;10.994;2023-02-03T07:51:44;3.45;;;1.50;;
29906;SDS011;16776;50.958;10.994;2023-02-03T07:54:11;2.80;;;1.48;;
29906;SDS011;16776;50.958;10.994;2023-02-03T07:56:39;2.20;;;1.42;;
29906;SDS011;16776;50.958;10.994;2023-02-03T07:59:07;2.45;;;1.63;;
29906;SDS011;16776;50.958;10.994;2023-02-03T08:01:36;1.55;;;1.45;;
29906;SDS011;16776;50.958;10.994;2023-02-03T08:04:02;3.92;;;1.65;;
29906;SDS011;16776;50.958;10.994;2023-02-03T08:06:31;3.30;;;1.50;;
29906;SDS011;16776;50.958;10.994;2023-02-03T08:08:58;2.67;;;1.33;;
29906;SDS011;16776;50.958;10.994;2023-02-03T08:11:24;3.20;;;1.40;;
29906;SDS011;16776;50.958;10.994;2023-02-03T08:13:51;1.83;;;1.40;;
29906;SDS011;16776;50.958;10.994;2023-02-03T08:16:17;2.40;;;2.00;;
29906;SDS011;16776;50.958;10.994;2023-02-03T08:18:44;2.85;;;1.25;;
29906;SDS011;16776;50.958;10.994;2023-02-03T08:21:10;1.55;;;1.38;;
29906;SDS011;16776;50.958;10.994;2023-02-03T08:23:38;3.25;;;1.27;;
29906;SDS011;16776;50.958;10.994;2023-02-03T08:26:05;1.48;;;1.20;;
29906;SDS011;16776;50.958;10.994;2023-02-03T08:28:31;2.78;;;1.60;;
29906;SDS011;16776;50.958;10.994;2023-02-03T08:30:58;3.35;;;1.83;;
29906;SDS011;16776;50.958;10.994;2023-02-03T08:33:25;2.13;;;1.77;;
29906;SDS011;16776;50.958;10.994;2023-02-03T08:35:52;2.75;;;1.60;;
29906;SDS011;16776;50.958;10.994;2023-02-03T08:38:19;1.33;;;1.23;;
29906;SDS011;16776;50.958;10.994;2023-02-03T08:40:47;1.52;;;1.42;;
29906;SDS011;16776;50.958;10.994;2023-02-03T08:43:14;2.47;;;1.48;;
29906;SDS011;16776;50.958;10.994;2023-02-03T08:45:41;1.35;;;1.15;;
29906;SDS011;16776;50.958;10.994;2023-02-03T08:48:08;1.20;;;0.88;;
29906;SDS011;16776;50.958;10.994;2023-02-03T08:50:34;3.13;;;1.77;;
29906;SDS011;16776;50.958;10.994;2023-02-03T08:53:01;1.25;;;1.10;;
29906;SDS011;16776;50.958;10.994;2023-02-03T08:55:27;2.00;;;1.27;;
29906;SDS011;16776;50.958;10.994;2023-02-03T08:57:55;1.77;;;1.10;;
29906;SDS011;16776;50.958;10.994;2023-02-03T09:00:22;1.50;;;1.17;;
29906;SDS011;16776;50.958;10.994;2023-02-03T09:02:49;2.78;;;1.77;;
29906;SDS011;16776;50.958;10.994;2023-02-03T09:05:15;1.40;;;1.30;;
29906;SDS011;16776;50.958;10.994;2023-02-03T09:07:42;1.00;;;1.00;;
29906;SDS011;16776;50.958;10.994;2023-02-03T09:10:09;2.33;;;1.05;;
29906;SDS011;16776;50.958;10.994;2023-02-03T09:12:36;1.98;;;1.23;;
29906;SDS011;16776;50.958;10.994;2023-02-03T09:15:04;1.50;;;1.40;;
29906;SDS011;16776;50.958;10.994;2023-02-03T09:17:31;2.33;;;1.25;;
29906;SDS011;16776;50.958;10.994;2023-02-03T09:19:57;3.38;;;1.27;;
29906;SDS011;16776;50.958;10.994;2023-02-03T09:22:24;1.20;;;1.10;;
29906;SDS011;16776;50.958;10.994;2023-02-03T09:24:51;1.80;;;1.00;;
29906;SDS011;16776;50.958;10.994;2023-02-03T09:27:17;2.45;;;1.00;;
29906;SDS011;16776;50.958;10.994;2023-02-03T09:29:44;1.08;;;0.90;;
29906;SDS011;16776;50.958;10.994;2023-02-03T09:32:12;1.45;;;1.00;;
29906;SDS011;16776;50.958;10.994;2023-02-03T09:34:38;1.20;;;1.10;;
29906;SDS011;16776;50.958;10.994;2023-02-03T09:37:05;1.23;;;0.98;;
29906;SDS011;16776;50.958;10.994;2023-02-03T09:39:32;3.40;;;1.27;;
29906;SDS011;16776;50.958;10.994;2023-02-03T09:44:54;3.08;;;0.85;;
29906;SDS011;16776;50.958;10.994;2023-02-03T09:47:31;1.65;;;1.02;;
29906;SDS011;16776;50.958;10.994;2023-02-03T09:50:02;1.33;;;0.90;;
29906;SDS011;16776;50.958;10.994;2023-02-03T09:52:31;1.30;;;0.70;;
29906;SDS011;16776;50.958;10.994;2023-02-03T09:55:02;1.08;;;0.90;;
29906;SDS011;16776;50.958;10.994;2023-02-03T09:57:34;0.80;;;0.80;;
29906;SDS011;16776;50.958;10.994;2023-02-03T10:00:13;0.80;;;0.80;;
29906;SDS011;16776;50.958;10.994;2023-02-03T10:02:48;1.05;;;0.75;;
29906;SDS011;16776;50.958;10.994;2023-02-03T10:05:21;0.70;;;0.70;;
29906;SDS011;16776;50.958;10.994;2023-02-03T10:07:56;1.63;;;0.90;;
29906;SDS011;16776;50.958;10.994;2023-02-03T10:10:31;0.70;;;0.70;;
29906;SDS011;16776;50.958;10.994;2023-02-03T10:13:05;1.88;;;0.80;;
29906;SDS011;16776;50.958;10.994;2023-02-03T10:18:52;1.13;;;1.13;;
29906;SDS011;16776;50.958;10.994;2023-02-03T10:21:23;1.02;;;0.70;;
29906;SDS011;16776;50.958;10.994;2023-02-03T10:24:01;0.70;;;0.50;;
29906;SDS011;16776;50.958;10.994;2023-02-03T10:26:31;0.70;;;0.70;;
29906;SDS011;16776;50.958;10.994;2023-02-03T10:29:01;1.02;;;0.80;;
29906;SDS011;16776;50.958;10.994;2023-02-03T10:31:34;0.77;;;0.77;;
29906;SDS011;16776;50.958;10.994;2023-02-03T10:34:07;0.82;;;0.70;;
29906;SDS011;16776;50.958;10.994;2023-02-03T10:36:39;1.48;;;0.80;;
29906;SDS011;16776;50.958;10.994;2023-02-03T10:39:16;0.88;;;0.77;;
29906;SDS011;16776;50.958;10.994;2023-02-03T10:41:49;0.68;;;0.60;;
29906;SDS011;16776;50.958;10.994;2023-02-03T10:44:16;0.50;;;0.50;;
29906;SDS011;16776;50.958;10.994;2023-02-03T10:46:42;0.95;;;0.70;;
29906;SDS011;16776;50.958;10.994;2023-02-03T10:49:11;0.32;;;0.32;;
29906;SDS011;16776;50.958;10.994;2023-02-03T10:51:41;0.50;;;0.50;;
29906;SDS011;16776;50.958;10.994;2023-02-03T10:54:28;1.02;;;0.50;;
29906;SDS011;16776;50.958;10.994;2023-02-03T10:57:01;0.88;;;0.50;;
29906;SDS011;16776;50.958;10.994;2023-02-03T11:01:57;0.95;;;0.50;;
29906;SDS011;16776;50.958;10.994;2023-02-03T11:04:26;0.50;;;0.50;;
29906;SDS011;16776;50.958;10.994;2023-02-03T11:06:55;0.75;;;0.40;;
29906;SDS011;16776;50.958;10.994;2023-02-03T11:09:27;0.77;;;0.40;;
29906;SDS011;16776;50.958;10.994;2023-02-03T11:12:01;0.38;;;0.38;;
29906;SDS011;16776;50.958;10.994;2023-02-03T11:14:35;0.40;;;0.40;;
29906;SDS011;16776;50.958;10.994;2023-02-03T11:17:04;0.52;;;0.40;;
29906;SDS011;16776;50.958;10.994;2023-02-03T11:19:34;0.40;;;0.40;;
29906;SDS011;16776;50.958;10.994;2023-02-03T11:22:03;1.00;;;0.38;;
29906;SDS011;16776;50.958;10.994;2023-02-03T11:24:31;0.45;;;0.45;;
29906;SDS011;16776;50.958;10.994;2023-02-03T11:27:03;0.30;;;0.30;;
29906;SDS011;16776;50.958;10.994;2023-02-03T11:29:32;1.45;;;0.30;;
29906;SDS011;16776;50.958;10.994;2023-02-03T11:32:01;0.52;;;0.50;;
29906;SDS011;16776;50.958;10.994;2023-02-03T11:34:32;0.60;;;0.50;;
29906;SDS011;16776;50.958;10.994;2023-02-03T11:37:22;0.43;;;0.43;;
29906;SDS011;16776;50.958;10.994;2023-02-03T11:39:54;0.45;;;0.40;;
29906;SDS011;16776;50.958;10.994;2023-02-03T11:42:21;0.50;;;0.40;;
29906;SDS011;16776;50.958;10.994;2023-02-03T11:44:49;0.57;;;0.40;;
29906;SDS011;16776;50.958;10.994;2023-02-03T11:47:15;0.30;;;0.30;;
29906;SDS011;16776;50.958;10.994;2023-02-03T11:53:02;0.57;;;0.38;;
29906;SDS011;16776;50.958;10.994;2023-02-03T11:55:49;1.00;;;0.25;;
29906;SDS011;16776;50.958;10.994;2023-02-03T11:58:34;1.02;;;0.43;;
29906;SDS011;16776;50.958;10.994;2023-02-03T12:01:33;0.95;;;0.40;;
29906;SDS011;16776;50.958;10.994;2023-02-03T12:04:20;0.80;;;0.40;;
29906;SDS011;16776;50.958;10.994;2023-02-03T12:09:44;0.15;;;0.15;;
29906;SDS011;16776;50.958;10.994;2023-02-03T12:12:30;1.20;;;0.38;;
29906;SDS011;16776;50.958;10.994;2023-02-03T12:15:14;0.40;;;0.40;;
29906;SDS011;16776;50.958;10.994;2023-02-03T12:17:56;0.45;;;0.30;;
29906;SDS011;16776;50.958;10.994;2023-02-03T12:20:37;0.98;;;0.40;;
29906;SDS011;16776;50.958;10.994;2023-02-03T12:23:16;0.38;;;0.38;;
29906;SDS011;16776;50.958;10.994;2023-02-03T12:25:59;0.50;;;0.50;;
29906;SDS011;16776;50.958;10.994;2023-02-03T12:28:41;0.68;;;0.30;;
29906;SDS011;16776;50.958;10.994;2023-02-03T12:31:14;0.90;;;0.47;;
29906;SDS011;16776;50.958;10.994;2023-02-03T12:33:44;1.38;;;0.43;;
29906;SDS011;16776;50.958;10.994;2023-02-03T12:36:17;0.57;;;0.57;;
29906;SDS011;16776;50.958;10.994;2023-02-03T12:38:48;0.30;;;0.30;;
29906;SDS011;16776;50.958;10.994;2023-02-03T12:41:19;0.30;;;0.30;;
29906;SDS011;16776;50.958;10.994;2023-02-03T12:43:51;0.28;;;0.28;;
29906;SDS011;16776;50.958;10.994;2023-02-03T12:46:21;0.47;;;0.47;;
29906;SDS011;16776;50.958;10.994;2023-02-03T12:48:52;0.40;;;0.40;;
29906;SDS011;16776;50.958;10.994;2023-02-03T12:51:28;0.30;;;0.30;;
29906;SDS011;16776;50.958;10.994;2023-02-03T12:54:00;0.50;;;0.30;;
29906;SDS011;16776;50.958;10.994;2023-02-03T12:56:36;0.30;;;0.30;;
29906;SDS011;16776;50.958;10.994;2023-02-03T12:59:08;1.02;;;0.60;;
29906;SDS011;16776;50.958;10.994;2023-02-03T13:04:11;1.00;;;0.40;;
29906;SDS011;16776;50.958;10.994;2023-02-03T13:06:47;0.30;;;0.30;;
29906;SDS011;16776;50.958;10.994;2023-02-03T13:09:21;0.73;;;0.43;;
29906;SDS011;16776;50.958;10.994;2023-02-03T13:11:55;1.02;;;0.55;;
29906;SDS011;16776;50.958;10.994;2023-02-03T13:14:27;0.30;;;0.30;;
29906;SDS011;16776;50.958;10.994;2023-02-03T13:16:59;0.22;;;0.22;;
29906;SDS011;16776;50.958;10.994;2023-02-03T13:19:36;0.40;;;0.40;;
29906;SDS011;16776;50.958;10.994;2023-02-03T13:22:09;0.50;;;0.50;;
29906;SDS011;16776;50.958;10.994;2023-02-03T13:24:37;0.60;;;0.40;;
29906;SDS011;16776;50.958;10.994;2023-02-03T13:27:13;1.40;;;0.40;;
29906;SDS011;16776;50.958;10.994;2023-02-03T13:29:56;0.50;;;0.50;;
29906;SDS011;16776;50.958;10.994;2023-02-03T13:32:40;0.40;;;0.40;;
29906;SDS011;16776;50.958;10.994;2023-02-03T13:35:25;1.75;;;0.50;;
29906;SDS011;16776;50.958;10.994;2023-02-03T13:40:57;1.48;;;0.63;;
29906;SDS011;16776;50.958;10.994;2023-02-03T13:43:32;0.50;;;0.50;;
29906;SDS011;16776;50.958;10.994;2023-02-03T13:46:01;1.05;;;0.60;;
29906;SDS011;16776;50.958;10.994;2023-02-03T13:48:29;2.65;;;0.80;;
29906;SDS011;16776;50.958;10.994;2023-02-03T13:51:02;2.65;;;0.60;;
29906;SDS011;16776;50.958;10.994;2023-02-03T13:53:32;1.30;;;0.60;;
29906;SDS011;16776;50.958;10.994;2023-02-03T13:56:02;0.43;;;0.40;;
29906;SDS011;16776;50.958;10.994;2023-02-03T13:58:30;0.20;;;0.20;;
29906;SDS011;16776;50.958;10.994;2023-02-03T14:03:53;3.15;;;0.90;;
29906;SDS011;16776;50.958;10.994;2023-02-03T14:09:38;1.83;;;0.63;;
29906;SDS011;16776;50.958;10.994;2023-02-03T14:12:16;3.28;;;0.63;;
29906;SDS011;16776;50.958;10.994;2023-02-03T14:14:57;4.20;;;0.95;;
29906;SDS011;16776;50.958;10.994;2023-02-03T14:23:37;3.03;;;0.68;;
29906;SDS011;16776;50.958;10.994;2023-02-03T14:26:13;1.58;;;0.60;;
29906;SDS011;16776;50.958;10.994;2023-02-03T14:28:44;4.63;;;0.85;;
29906;SDS011;16776;50.958;10.994;2023-02-03T14:31:15;0.80;;;0.38;;
29906;SDS011;16776;50.958;10.994;2023-02-03T14:36:39;0.40;;;0.30;;
29906;SDS011;16776;50.958;10.994;2023-02-03T14:42:08;1.33;;;0.70;;
29906;SDS011;16776;50.958;10.994;2023-02-03T14:44:44;2.38;;;0.30;;
29906;SDS011;16776;50.958;10.994;2023-02-03T14:47:32;1.25;;;0.52;;
29906;SDS011;16776;50.958;10.994;2023-02-03T14:50:19;1.42;;;0.40;;
29906;SDS011;16776;50.958;10.994;2023-02-03T14:53:04;2.80;;;0.55;;
29906;SDS011;16776;50.958;10.994;2023-02-03T14:55:46;3.22;;;0.75;;
29906;SDS011;16776;50.958;10.994;2023-02-03T14:58:25;6.43;;;1.35;;
29906;SDS011;16776;50.958;10.994;2023-02-03T15:00:54;5.90;;;1.20;;
29906;SDS011;16776;50.958;10.994;2023-02-03T15:03:24;3.97;;;0.73;;
29906;SDS011;16776;50.958;10.994;2023-02-03T15:05:55;1.45;;;0.55;;
29906;SDS011;16776;50.958;10.994;2023-02-03T15:08:30;2.80;;;0.87;;
29906;SDS011;16776;50.958;10.994;2023-02-03T15:11:14;1.85;;;0.90;;
29906;SDS011;16776;50.958;10.994;2023-02-03T15:13:46;4.20;;;1.43;;
29906;SDS011;16776;50.958;10.994;2023-02-03T15:16:13;4.03;;;1.10;;
29906;SDS011;16776;50.958;10.994;2023-02-03T15:18:44;3.28;;;1.10;;
29906;SDS011;16776;50.958;10.994;2023-02-03T15:21:15;4.03;;;1.10;;
29906;SDS011;16776;50.958;10.994;2023-02-03T15:23:43;4.45;;;1.08;;
29906;SDS011;16776;50.958;10.994;2023-02-03T15:26:14;3.67;;;1.27;;
29906;SDS011;16776;50.958;10.994;2023-02-03T15:28:43;2.47;;;0.70;;
29906;SDS011;16776;50.958;10.994;2023-02-03T15:31:20;6.53;;;1.13;;
29906;SDS011;16776;50.958;10.994;2023-02-03T15:33:56;5.95;;;1.35;;
29906;SDS011;16776;50.958;10.994;2023-02-03T15:36:30;3.58;;;0.95;;